createdAt,value
2022-10-13T00:00:02.229Z,65.5367122734643
2022-10-13T00:15:01.854Z,69.54133065714495
2022-10-13T00:30:02.553Z,70.7852354643636
2022-10-13T00:45:02.154Z,71.57884272507025
2022-10-13T01:00:01.805Z,70.43466625672743
2022-10-13T01:15:02.441Z,71.33628862461131
2022-10-13T01:30:02.078Z,72.19291675814996
2022-10-13T01:45:01.709Z,73.18205974072548
2022-10-13T02:00:02.296Z,72.55459152382204
2022-10-13T02:15:01.924Z,71.33057279614452
2022-10-13T02:30:01.615Z,70.11075963866348
2022-10-13T02:45:02.257Z,73.23217484577815
2022-10-13T03:00:01.913Z,70.82737688813765
2022-10-13T03:15:01.566Z,71.92600228250507
2022-10-13T03:30:02.206Z,69.8464157051122
2022-10-13T03:45:01.824Z,74.32996504944887
2022-10-13T04:00:02.469Z,73.12980649053213
2022-10-13T04:15:02.094Z,73.83376413920317
2022-10-13T04:30:02.310Z,70.00451240096598
2022-10-13T04:45:01.976Z,75.26980415215539
2022-10-13T05:00:01.633Z,70.40003787397971
2022-10-13T05:15:02.257Z,69.8554672696244
2022-10-13T05:30:01.893Z,69.40886778601838
2022-10-13T05:45:02.536Z,69.38397598970633
2022-10-13T06:00:02.180Z,69.44779398503151
2022-10-13T06:15:01.866Z,69.87680099590175
2022-10-13T06:30:02.548Z,70.90576482517096
2022-10-13T06:45:02.213Z,69.82261188244657
2022-10-13T07:00:01.882Z,69.5875530632738
2022-10-13T07:15:02.572Z,72.22087846491326
2022-10-13T07:30:02.229Z,73.41010521629529
2022-10-13T07:45:01.869Z,75.4680501560517
2022-10-13T08:00:02.594Z,76.03937401724558
2022-10-13T08:15:05.992Z,76.30953489194061
2022-10-13T08:30:02.321Z,76.52557760152916
2022-10-13T09:00:01.662Z,75.30596151458106
2022-10-13T09:15:02.331Z,74.76652572005095
2022-10-13T09:30:01.998Z,74.05370382162072
2022-10-13T09:45:01.675Z,73.85740292043083
2022-10-13T10:15:01.962Z,72.80498826093798
2022-10-13T10:30:01.681Z,72.14735805235485
2022-10-13T10:45:02.339Z,71.92653758107205
2022-10-13T11:00:01.967Z,71.47637502042402
2022-10-13T11:15:01.657Z,71.29539079962967
2022-10-13T11:30:02.335Z,70.68836199009647
2022-10-13T11:45:01.964Z,70.19942826828162
2022-10-13T12:00:01.624Z,69.75146167167223
2022-10-13T12:15:05.967Z,69.47130270616469
2022-10-13T12:30:01.832Z,67.99669224638724
2022-10-13T12:45:02.491Z,67.0957841249794
2022-10-13T13:00:02.181Z,66.7157936135744
2022-10-13T13:15:01.783Z,66.35178233807544
2022-10-13T13:30:02.454Z,66.09515353725729
2022-10-13T13:45:02.081Z,65.8204100790661
2022-10-13T14:00:01.724Z,66.02000075397147
2022-10-13T14:15:02.395Z,65.38056454918343
2022-10-13T14:30:02.148Z,64.88693740552328
2022-10-13T14:45:01.792Z,64.78100229445228
2022-10-13T15:00:02.549Z,66.16391079993018
2022-10-13T15:15:02.190Z,67.25524592110852
2022-10-13T15:30:01.896Z,67.87978813491513
2022-10-13T15:45:11.145Z,68.35404639207175
2022-10-13T16:00:02.300Z,68.64580793108001
2022-10-13T16:15:01.967Z,69.03429361014148
2022-10-13T16:30:01.750Z,69.58779928138514
2022-10-13T16:45:02.420Z,70.59826588085518
2022-10-13T17:00:02.039Z,70.79028873807309
2022-10-13T17:15:01.718Z,71.36368539290133
2022-10-13T17:30:02.391Z,71.73804616033763
2022-10-13T17:45:02.008Z,72.11793193317891
2022-10-13T18:00:01.694Z,71.97199149418766
2022-10-13T18:15:02.302Z,72.08198551612423
2022-10-13T18:30:01.967Z,71.45386379477863
2022-10-13T18:45:01.619Z,71.70126183514958
2022-10-13T19:00:02.277Z,71.97354023314077
2022-10-13T19:15:01.995Z,71.77298771341478
2022-10-13T19:30:01.762Z,71.42585792563307
2022-10-13T19:45:02.414Z,71.02270440798128
2022-10-13T20:00:02.046Z,71.01444389074211
2022-10-13T20:15:01.752Z,71.96513256913538
2022-10-13T20:30:02.390Z,72.20420853680231
2022-10-13T20:45:02.122Z,72.14598912499905
2022-10-13T21:00:01.806Z,72.12045810671327
2022-10-13T21:15:02.465Z,73.44417174681591
2022-10-13T21:30:02.128Z,73.53498758879192
2022-10-13T21:45:01.819Z,73.73121876646844
2022-10-13T22:00:02.539Z,73.62994567896995
2022-10-13T22:15:02.230Z,73.88140888740887
2022-10-13T22:30:01.894Z,74.03022464540862
2022-10-13T22:45:02.548Z,74.62219358965363
2022-10-13T23:00:02.220Z,74.58806387798126
2022-10-13T23:15:01.938Z,74.46318425198547
2022-10-13T23:30:01.661Z,75.09850766506986
2022-10-13T23:45:02.372Z,75.02414032091697
